Time;durP1;ratioP1;P1;durP2;ratioP2;P2;SDS_P1;SDS_P2;PMS_P1;PMS_P2;Temp;Humidity;BMP_temperature;BMP_pressure;BME280_temperature;BME280_humidity;BME280_pressure;Samples;Min_cycle;Max_cycle;Signal;HPM_P1;HPM_P2
2023/10/21 00:00:05;;;;;;;41.00;20.90;;;;;;;-146.25;100.00;52512.16;2095120;28;35916;-75
2023/10/21 00:01:12;;;;;;;39.83;20.35;;;;;;;-146.25;100.00;52552.72;2088805;28;20084;-74
2023/10/21 00:02:16;;;;;;;40.63;21.42;;;;;;;-146.25;100.00;52554.75;2087771;28;34989;-76
2023/10/21 00:03:18;;;;;;;35.75;20.00;;;;;;;-146.25;100.00;52497.97;2088207;28;36943;-76
2023/10/21 00:04:21;;;;;;;38.75;20.77;;;;;;;-146.25;100.00;52542.56;2087809;28;30051;-75
2023/10/21 00:05:25;;;;;;;37.08;20.20;;;;;;;-146.25;100.00;52546.63;2087401;28;35004;-75
2023/10/21 00:06:27;;;;;;;38.53;20.45;;;;;;;-146.25;100.00;52530.41;2087425;28;30639;-75
2023/10/21 00:07:28;;;;;;;40.42;21.05;;;;;;;-146.25;100.00;52514.19;2088254;28;32121;-76
2023/10/21 00:08:30;;;;;;;35.28;20.35;;;;;;;-146.25;100.00;52518.25;2087416;28;39645;-75
2023/10/21 00:09:34;;;;;;;39.83;21.10;;;;;;;-146.25;100.00;52514.19;2088819;28;20072;-75
2023/10/21 00:10:36;;;;;;;40.10;21.10;;;;;;;-146.25;100.00;52526.34;2087599;28;31394;-74
2023/10/21 00:11:40;;;;;;;39.53;20.80;;;;;;;-146.25;100.00;52579.06;2088358;28;32199;-76
2023/10/21 00:12:44;;;;;;;40.75;21.50;;;;;;;-146.25;100.00;52530.41;2088167;28;33098;-74
2023/10/21 00:13:46;;;;;;;38.55;21.05;;;;;;;-146.25;100.00;52554.75;2087529;28;36951;-75
2023/10/21 00:14:48;;;;;;;39.70;21.10;;;;;;;-146.25;100.00;52506.06;2088372;28;20927;-75
2023/10/21 00:15:50;;;;;;;39.15;21.90;;;;;;;-146.25;100.00;52518.25;2087449;28;37393;-75
2023/10/21 00:16:52;;;;;;;41.42;21.42;;;;;;;-146.25;100.00;52542.56;2087699;28;35605;-75
2023/10/21 00:17:54;;;;;;;42.97;22.48;;;;;;;-146.25;100.00;52568.94;2087990;28;33641;-75
2023/10/21 00:18:56;;;;;;;42.85;21.75;;;;;;;-146.25;100.00;52532.44;2087259;28;37076;-75
2023/10/21 00:19:59;;;;;;;48.83;22.70;;;;;;;-146.25;100.00;52532.44;2088838;28;20127;-75
2023/10/21 00:21:01;;;;;;;41.13;21.92;;;;;;;-146.25;100.00;52558.78;2088069;28;21114;-74
2023/10/21 00:22:05;;;;;;;42.25;22.08;;;;;;;-146.25;100.00;52526.34;2087194;28;38986;-75
2023/10/21 00:23:07;;;;;;;43.58;23.23;;;;;;;-146.25;100.00;52506.06;2087165;28;31437;-75
2023/10/21 00:24:09;;;;;;;43.83;22.52;;;;;;;-146.25;100.00;52522.28;2087835;28;33878;-75
2023/10/21 00:25:14;;;;;;;45.75;22.35;;;;;;;-146.25;100.00;52516.22;2088509;28;20122;-75
2023/10/21 00:26:16;;;;;;;42.88;23.73;;;;;;;-146.25;100.00;52528.38;2095225;28;36214;-75
2023/10/21 00:27:24;;;;;;;45.28;22.15;;;;;;;-146.25;100.00;52532.44;2095181;28;20989;-75
2023/10/21 00:28:25;;;;;;;42.83;23.08;;;;;;;-146.25;100.00;52514.19;2087110;28;27259;-75
2023/10/21 00:29:27;;;;;;;44.75;23.90;;;;;;;-146.25;100.00;52526.34;2078827;28;32396;-75
2023/10/21 00:30:29;;;;;;;44.88;22.60;;;;;;;-146.25;100.00;52522.28;2079360;28;20054;-75
2023/10/21 00:31:31;;;;;;;47.65;24.33;;;;;;;-146.25;100.00;52516.22;2086825;28;29473;-75
2023/10/21 00:32:33;;;;;;;48.58;22.50;;;;;;;-146.25;100.00;52542.56;2087551;28;26304;-75
2023/10/21 00:33:34;;;;;;;47.75;23.67;;;;;;;-146.25;100.00;52530.41;2087141;28;28643;-75
2023/10/21 00:34:39;;;;;;;47.42;23.15;;;;;;;-146.25;100.00;52487.81;2095026;28;37947;-75
2023/10/21 00:35:45;;;;;;;44.95;23.35;;;;;;;-146.25;100.00;52522.28;2088425;28;20942;-74
2023/10/21 00:36:47;;;;;;;43.03;23.20;;;;;;;-146.25;100.00;52514.19;2087807;28;35241;-75
2023/10/21 00:37:48;;;;;;;48.78;23.80;;;;;;;-146.25;100.00;52506.06;2087719;28;29860;-74
2023/10/21 00:38:53;;;;;;;52.28;24.42;;;;;;;-146.25;100.00;52487.81;2088343;28;20041;-75
2023/10/21 00:39:57;;;;;;;43.38;23.33;;;;;;;-146.25;100.00;52542.56;2086608;28;30236;-75
2023/10/21 00:40:59;;;;;;;53.15;24.50;;;;;;;-146.25;100.00;52532.44;2088048;28;20052;-77
2023/10/21 00:42:02;;;;;;;48.10;23.52;;;;;;;-146.25;100.00;52524.31;2086915;28;30752;-75
2023/10/21 00:43:04;;;;;;;44.97;22.85;;;;;;;-146.25;100.00;52550.69;2087128;28;27982;-74
2023/10/21 00:44:06;;;;;;;52.53;24.20;;;;;;;-146.25;100.00;52573.00;2087187;28;22154;-75
2023/10/21 00:45:09;;;;;;;48.20;24.73;;;;;;;-146.25;100.00;52564.88;2087251;28;31704;-75
2023/10/21 00:46:18;;;;;;;43.20;23.95;;;;;;;-146.25;100.00;52514.19;2087024;28;20089;-75
2023/10/21 00:47:20;;;;;;;52.47;24.75;;;;;;;-146.25;100.00;52506.06;2087127;28;34220;-75
2023/10/21 00:48:22;;;;;;;53.08;24.98;;;;;;;-146.25;100.00;52534.47;2087363;28;25544;-74
2023/10/21 00:49:23;;;;;;;50.20;24.92;;;;;;;-146.25;100.00;52554.75;2087599;28;23472;-74
2023/10/21 00:50:25;;;;;;;48.88;24.70;;;;;;;-146.25;100.00;52504.03;2087408;28;20909;-74
2023/10/21 00:51:27;;;;;;;51.50;24.15;;;;;;;-146.25;100.00;52524.31;2087766;28;37894;-75
2023/10/21 00:52:29;;;;;;;52.17;24.67;;;;;;;-146.25;100.00;52530.41;2086902;28;31130;-74
2023/10/21 00:53:31;;;;;;;53.92;25.20;;;;;;;-146.25;100.00;52522.28;2087129;28;29505;-75
2023/10/21 00:54:33;;;;;;;49.28;24.88;;;;;;;-146.25;100.00;52506.06;2087807;28;26769;-75
2023/10/21 00:55:35;;;;;;;47.03;24.60;;;;;;;-146.25;100.00;52528.38;2087344;28;20049;-74
2023/10/21 00:56:40;;;;;;;53.47;24.80;;;;;;;-146.25;100.00;52534.47;2087495;28;20159;-75
2023/10/21 00:57:44;;;;;;;53.33;24.63;;;;;;;-146.25;100.00;52546.63;2089015;28;20033;-73
2023/10/21 00:58:46;;;;;;;54.42;25.33;;;;;;;-146.25;100.00;52548.66;2087384;28;31930;-74
2023/10/21 00:59:47;;;;;;;51.17;23.50;;;;;;;-146.25;100.00;52546.63;2088069;28;30185;-74
2023/10/21 01:00:50;;;;;;;55.45;25.90;;;;;;;-146.25;100.00;52510.13;2087645;28;20895;-75
2023/10/21 01:01:54;;;;;;;51.42;24.38;;;;;;;-146.25;100.00;52510.13;2088174;28;20934;-75
2023/10/21 01:02:57;;;;;;;52.25;24.98;;;;;;;-146.25;100.00;52518.25;2088236;28;28102;-75
2023/10/21 01:03:58;;;;;;;49.38;24.88;;;;;;;-146.25;100.00;52554.75;2080656;28;28176;-75
2023/10/21 01:05:00;;;;;;;52.88;25.48;;;;;;;-146.25;100.00;52526.34;2080059;28;34872;-75
2023/10/21 01:06:07;;;;;;;50.88;24.55;;;;;;;-146.25;100.00;52522.28;2089439;28;20867;-73
2023/10/21 01:07:16;;;;;;;52.72;25.35;;;;;;;-146.25;100.00;52558.78;2089291;28;29600;-74
2023/10/21 01:08:18;;;;;;;52.55;24.50;;;;;;;-146.25;100.00;52546.63;2089390;28;33651;-74
2023/10/21 01:09:22;;;;;;;55.13;25.52;;;;;;;-146.25;100.00;52575.00;2088520;28;22225;-74
2023/10/21 01:10:23;;;;;;;51.47;24.55;;;;;;;-146.25;100.00;52522.28;2088853;28;34747;-73
2023/10/21 01:11:25;;;;;;;53.30;26.00;;;;;;;-146.25;100.00;52538.53;2097241;28;20025;-74
2023/10/21 01:12:27;;;;;;;50.10;24.58;;;;;;;-146.25;100.00;52538.53;2088710;28;27083;-73
2023/10/21 01:13:29;;;;;;;54.88;25.90;;;;;;;-146.25;100.00;52566.91;2088831;28;20033;-74
2023/10/21 01:14:33;;;;;;;55.33;24.75;;;;;;;-146.25;100.00;52544.59;2089268;28;24432;-74
2023/10/21 01:15:35;;;;;;;54.22;24.88;;;;;;;-146.25;100.00;52544.59;2088363;28;38319;-74
2023/10/21 01:16:37;;;;;;;51.70;24.58;;;;;;;-146.25;100.00;52546.63;2090066;28;20045;-74
2023/10/21 01:17:41;;;;;;;58.70;26.75;;;;;;;-146.25;100.00;52510.13;2096411;28;38319;-74
2023/10/21 01:18:43;;;;;;;55.25;27.08;;;;;;;-146.25;100.00;52542.56;2096842;28;20034;-74
2023/10/21 01:19:45;;;;;;;53.25;24.88;;;;;;;-146.25;100.00;52518.25;2089383;28;28359;-74
2023/10/21 01:20:52;;;;;;;60.97;27.38;;;;;;;-146.25;100.00;52546.63;2089549;28;21064;-72
2023/10/21 01:21:56;;;;;;;63.38;24.73;;;;;;;-146.25;100.00;52552.72;2097163;28;20175;-75
2023/10/21 01:22:59;;;;;;;61.55;26.75;;;;;;;-146.25;100.00;52546.63;2096441;28;30575;-73
2023/10/21 01:24:01;;;;;;;56.72;25.83;;;;;;;-146.25;100.00;52552.72;2088218;28;26869;-73
2023/10/21 01:25:04;;;;;;;53.45;25.92;;;;;;;-146.25;100.00;52558.78;2088531;28;29439;-73
2023/10/21 01:26:06;;;;;;;60.55;25.75;;;;;;;-146.25;100.00;52518.25;2087903;28;37938;-75
2023/10/21 01:27:08;;;;;;;65.38;27.55;;;;;;;-146.25;100.00;52530.41;2088660;28;26611;-74
2023/10/21 01:28:12;;;;;;;57.90;26.50;;;;;;;-146.25;100.00;52534.47;2088793;28;29845;-74
2023/10/21 01:29:13;;;;;;;65.88;27.67;;;;;;;-146.25;100.00;52546.63;2088736;28;20049;-74
2023/10/21 01:30:18;;;;;;;58.47;26.42;;;;;;;-146.25;100.00;52546.63;2088507;28;22600;-74
2023/10/21 01:31:19;;;;;;;61.60;27.52;;;;;;;-146.25;100.00;52528.38;2088826;28;27038;-74
2023/10/21 01:32:21;;;;;;;63.28;27.48;;;;;;;-146.25;100.00;52536.50;2089408;28;20045;-74
2023/10/21 01:33:23;;;;;;;63.38;26.85;;;;;;;-146.25;100.00;52524.31;2089310;28;27374;-74
2023/10/21 01:34:28;;;;;;;63.65;27.23;;;;;;;-146.25;100.00;52550.69;2097372;28;20046;-74
2023/10/21 01:35:31;;;;;;;62.67;26.88;;;;;;;-146.25;100.00;52518.25;2096810;28;27548;-74
2023/10/21 01:36:33;;;;;;;67.15;27.55;;;;;;;-146.25;100.00;52528.38;2088337;28;31521;-74
2023/10/21 01:37:35;;;;;;;61.95;27.38;;;;;;;-146.25;100.00;52538.53;2088617;28;20037;-74
2023/10/21 01:38:39;;;;;;;71.90;27.77;;;;;;;-146.25;100.00;52518.25;2096549;28;34541;-74
2023/10/21 01:39:41;;;;;;;67.20;27.10;;;;;;;-146.25;100.00;52530.41;2088241;28;26258;-74
2023/10/21 01:40:44;;;;;;;73.30;28.15;;;;;;;-146.25;100.00;52560.81;2088389;28;34367;-74
2023/10/21 01:41:45;;;;;;;69.53;28.83;;;;;;;-146.25;100.00;52516.22;2096239;28;32896;-75
2023/10/21 01:42:47;;;;;;;76.07;27.95;;;;;;;-146.25;100.00;52528.38;2089787;28;24844;-74
2023/10/21 01:43:51;;;;;;;69.68;28.92;;;;;;;-146.25;100.00;52544.59;2088967;28;29907;-74
2023/10/21 01:44:55;;;;;;;74.47;28.98;;;;;;;-146.25;100.00;52548.66;2089655;28;24850;-74
2023/10/21 01:45:57;;;;;;;72.97;29.15;;;;;;;-146.25;100.00;52526.34;2088286;28;31122;-75
2023/10/21 01:46:58;;;;;;;77.43;29.35;;;;;;;-146.25;100.00;52540.53;2097256;28;20061;-75
2023/10/21 01:48:00;;;;;;;67.50;28.13;;;;;;;-146.25;100.00;52558.78;2096449;28;32195;-74
2023/10/21 01:49:02;;;;;;;70.72;28.55;;;;;;;-146.25;100.00;52534.47;2089189;28;23383;-74
2023/10/21 01:50:08;;;;;;;73.40;28.05;;;;;;;-146.25;100.00;52522.28;2088174;28;26769;-74
2023/10/21 01:51:09;;;;;;;72.85;28.48;;;;;;;-146.25;100.00;52524.31;2088282;28;28689;-74
2023/10/21 01:52:12;;;;;;;69.18;28.45;;;;;;;-146.25;100.00;52546.63;2088252;28;20258;-75
2023/10/21 01:53:14;;;;;;;76.93;29.10;;;;;;;-146.25;100.00;52558.78;2088483;28;30502;-74
2023/10/21 01:54:16;;;;;;;67.93;28.60;;;;;;;-146.25;100.00;52532.44;2096487;28;20432;-74
2023/10/21 01:55:20;;;;;;;71.93;29.48;;;;;;;-146.25;100.00;52546.63;2088853;28;31607;-75
2023/10/21 01:56:21;;;;;;;84.85;29.45;;;;;;;-146.25;100.00;52493.91;2088728;28;29052;-74
2023/10/21 01:57:23;;;;;;;74.30;30.17;;;;;;;-146.25;100.00;52552.72;2088558;28;20181;-74
2023/10/21 01:58:25;;;;;;;77.85;29.85;;;;;;;-146.25;100.00;52558.78;2088440;28;20135;-75
2023/10/21 01:59:27;;;;;;;78.20;29.27;;;;;;;-146.25;100.00;52534.47;2096740;28;20139;-74
2023/10/21 02:00:29;;;;;;;78.28;29.77;;;;;;;-146.25;100.00;52528.38;2093089;28;21005;-75
2023/10/21 02:01:31;;;;;;;76.65;29.50;;;;;;;-146.25;100.00;52497.97;2087674;28;34506;-75
2023/10/21 02:02:33;;;;;;;79.72;30.27;;;;;;;-146.25;100.00;52526.34;2088745;28;20089;-74
2023/10/21 02:03:35;;;;;;;87.00;30.30;;;;;;;-146.25;100.00;52530.41;2088618;28;20046;-75
2023/10/21 02:04:37;;;;;;;78.53;29.40;;;;;;;-146.25;100.00;52568.94;2096495;28;25130;-73
2023/10/21 02:05:38;;;;;;;75.20;28.85;;;;;;;-146.25;100.00;52544.59;2088388;28;26659;-75
2023/10/21 02:06:42;;;;;;;85.53;29.50;;;;;;;-146.25;100.00;52534.47;2089273;28;20041;-74
2023/10/21 02:07:45;;;;;;;82.68;30.40;;;;;;;-146.25;100.00;52522.28;2089247;28;20064;-74
2023/10/21 02:08:47;;;;;;;80.68;29.35;;;;;;;-146.25;100.00;52514.19;2089193;28;20319;-73
2023/10/21 02:09:49;;;;;;;78.50;29.58;;;;;;;-146.25;100.00;52558.78;2089113;28;21753;-74
2023/10/21 02:10:53;;;;;;;76.82;29.52;;;;;;;-146.25;100.00;52566.91;2089290;28;20244;-74
2023/10/21 02:11:56;;;;;;;80.75;29.77;;;;;;;-146.25;100.00;52528.38;2089180;28;20045;-74
2023/10/21 02:13:00;;;;;;;76.68;29.45;;;;;;;-146.25;100.00;52573.00;2088672;28;36532;-73
2023/10/21 02:14:04;;;;;;;86.32;30.48;;;;;;;-146.25;100.00;52573.00;2087884;28;20732;-73
2023/10/21 02:15:11;;;;;;;84.03;30.17;;;;;;;-146.25;100.00;52518.25;2079971;28;20050;-74
2023/10/21 02:16:19;;;;;;;;;;;;;;;-146.25;100.00;52542.56;2081279;28;20847;-75
2023/10/21 02:17:22;;;;;;;78.88;28.50;;;;;;;-146.25;100.00;52522.28;2088283;28;19925;-74
2023/10/21 02:18:24;;;;;;;95.00;30.55;;;;;;;-146.25;100.00;52528.38;2088024;28;25680;-74
2023/10/21 02:19:26;;;;;;;83.57;28.15;;;;;;;-146.25;100.00;52528.38;2087817;28;20041;-74
2023/10/21 02:20:28;;;;;;;87.25;30.20;;;;;;;-146.25;100.00;52530.41;2089287;28;29072;-74
2023/10/21 02:21:29;;;;;;;97.45;31.05;;;;;;;-146.25;100.00;52534.47;2088422;28;36385;-74
2023/10/21 02:22:31;;;;;;;91.20;29.63;;;;;;;-146.25;100.00;52542.56;2088325;28;20815;-75
2023/10/21 02:23:35;;;;;;;97.40;30.55;;;;;;;-146.25;100.00;52530.41;2088217;28;20036;-74
2023/10/21 02:24:37;;;;;;;97.78;29.42;;;;;;;-146.25;100.00;52558.78;2087980;28;33016;-74
2023/10/21 02:25:39;;;;;;;100.15;31.40;;;;;;;-146.25;100.00;52526.34;2088204;28;26008;-74
2023/10/21 02:26:41;;;;;;;104.60;30.27;;;;;;;-146.25;100.00;52530.41;2089143;28;26440;-75
2023/10/21 02:27:43;;;;;;;122.22;31.63;;;;;;;-146.25;100.00;52528.38;2088857;28;26680;-73
2023/10/21 02:28:45;;;;;;;108.43;31.17;;;;;;;-146.25;100.00;52558.78;2088971;28;22539;-74
2023/10/21 02:29:54;;;;;;;109.13;28.92;;;;;;;-146.25;100.00;52526.34;2088964;28;20042;-74
2023/10/21 02:30:57;;;;;;;93.05;29.33;;;;;;;-146.25;100.00;52536.50;2088239;28;32202;-75
2023/10/21 02:31:58;;;;;;;127.07;31.75;;;;;;;-146.25;100.00;52568.94;2088276;28;20049;-74
2023/10/21 02:33:00;;;;;;;99.47;30.33;;;;;;;-146.25;100.00;52538.53;2079552;28;33229;-74
2023/10/21 02:34:03;;;;;;;140.95;30.95;;;;;;;-146.25;100.00;52508.09;2088245;28;20891;-74
2023/10/21 02:35:05;;;;;;;111.25;29.77;;;;;;;-146.25;100.00;52542.56;2088415;28;24356;-74
2023/10/21 02:36:08;;;;;;;113.45;30.08;;;;;;;-146.25;100.00;52546.63;2096361;28;20041;-72
2023/10/21 02:37:11;;;;;;;104.65;29.98;;;;;;;-146.25;100.00;52542.56;2104346;28;27595;-75
2023/10/21 02:38:13;;;;;;;109.07;29.98;;;;;;;-146.25;100.00;52518.25;2096310;28;32715;-74
2023/10/21 02:39:16;;;;;;;116.78;29.83;;;;;;;-146.25;100.00;52558.78;2096212;28;31354;-75
2023/10/21 02:40:17;;;;;;;119.68;30.33;;;;;;;-146.25;100.00;52497.97;2097362;28;22270;-72
2023/10/21 02:41:20;;;;;;;116.55;30.20;;;;;;;-146.25;100.00;52534.47;2097275;28;25439;-74
2023/10/21 02:42:21;;;;;;;126.93;29.95;;;;;;;-146.25;100.00;52542.56;2096902;28;25966;-74
2023/10/21 02:43:23;;;;;;;124.60;30.23;;;;;;;-146.25;100.00;52554.75;2090984;28;20815;-74
2023/10/21 02:44:25;;;;;;;120.22;31.08;;;;;;;-146.25;100.00;52516.22;2088244;28;20247;-74
2023/10/21 02:45:28;;;;;;;114.93;30.63;;;;;;;-146.25;100.00;52558.78;2088476;28;20843;-74
2023/10/21 02:46:30;;;;;;;97.20;29.58;;;;;;;-146.25;100.00;52556.75;2088045;28;20045;-73
2023/10/21 02:47:32;;;;;;;134.27;32.40;;;;;;;-146.25;100.00;52532.44;2088153;28;20848;-75
2023/10/21 02:48:34;;;;;;;111.65;31.33;;;;;;;-146.25;100.00;52528.38;2096618;28;20998;-73
2023/10/21 02:49:35;;;;;;;145.90;33.28;;;;;;;-146.25;100.00;52597.31;2096348;28;29138;-74
2023/10/21 02:50:37;;;;;;;136.95;32.17;;;;;;;-146.25;100.00;52544.59;2088789;28;25059;-73
2023/10/21 02:51:39;;;;;;;110.72;30.52;;;;;;;-146.25;100.00;52554.75;2088647;28;29585;-74
2023/10/21 02:52:41;;;;;;;129.80;32.20;;;;;;;-146.25;100.00;52530.41;2088784;28;20048;-73
2023/10/21 02:53:44;;;;;;;133.93;32.40;;;;;;;-146.25;100.00;52542.56;2088593;28;29532;-72
2023/10/21 02:54:45;;;;;;;124.35;31.17;;;;;;;-146.25;100.00;52532.44;2088438;28;26145;-69
2023/10/21 02:55:47;;;;;;;125.57;29.80;;;;;;;-146.25;100.00;52566.91;2088656;28;25071;-74
2023/10/21 02:56:49;;;;;;;115.85;31.50;;;;;;;-146.25;100.00;52550.69;2089065;28;20046;-74
2023/10/21 02:57:51;;;;;;;143.88;33.80;;;;;;;-146.25;100.00;52550.69;2088430;28;24851;-74
2023/10/21 02:58:53;;;;;;;148.93;41.60;;;;;;;-146.25;100.00;52530.41;2088281;28;29824;-73
2023/10/21 02:59:55;;;;;;;121.25;34.17;;;;;;;-146.25;100.00;52546.63;2088685;28;20180;-74
2023/10/21 03:00:59;;;;;;;122.43;33.30;;;;;;;-146.25;100.00;52560.81;2087977;28;30029;-73
2023/10/21 03:02:01;;;;;;;121.35;33.20;;;;;;;-146.25;100.00;52556.75;2096247;28;20045;-75
2023/10/21 03:03:04;;;;;;;117.32;32.92;;;;;;;-146.25;100.00;52530.41;2096521;28;25822;-75
2023/10/21 03:04:09;;;;;;;141.43;33.45;;;;;;;-146.25;100.00;52516.22;2088357;28;37732;-74
2023/10/21 03:05:12;;;;;;;118.60;32.20;;;;;;;-146.25;100.00;52518.25;2088537;28;20092;-75
2023/10/21 03:06:16;;;;;;;100.28;30.52;;;;;;;-146.25;100.00;52568.94;2088087;28;27118;-74
2023/10/21 03:07:18;;;;;;;138.70;33.13;;;;;;;-146.25;100.00;52518.25;2088348;28;20931;-73
2023/10/21 03:08:20;;;;;;;109.20;30.30;;;;;;;-146.25;100.00;52534.47;2095965;28;26973;-74
2023/10/21 03:09:22;;;;;;;110.60;31.33;;;;;;;-146.25;100.00;52514.19;2095872;28;24235;-73
2023/10/21 03:10:24;;;;;;;120.32;32.28;;;;;;;-146.25;100.00;52534.47;2088918;28;20048;-73
2023/10/21 03:11:26;;;;;;;126.93;33.33;;;;;;;-146.25;100.00;52514.19;2088454;28;34370;-74
2023/10/21 03:12:28;;;;;;;115.15;30.90;;;;;;;-146.25;100.00;52562.84;2088546;28;26232;-74
2023/10/21 03:13:38;;;;;;;121.38;32.03;;;;;;;-146.25;100.00;52564.88;2088766;28;20824;-73
2023/10/21 03:14:40;;;;;;;131.10;33.58;;;;;;;-146.25;100.00;52554.75;2087676;28;34934;-74
2023/10/21 03:15:42;;;;;;;121.03;30.15;;;;;;;-146.25;100.00;52532.44;2087443;28;28975;-72
2023/10/21 03:16:44;;;;;;;115.18;31.70;;;;;;;-146.25;100.00;52526.34;2088325;28;28727;-73
2023/10/21 03:17:46;;;;;;;119.68;31.73;;;;;;;-146.25;100.00;52546.63;2095670;28;31806;-73
2023/10/21 03:18:48;;;;;;;109.82;30.67;;;;;;;-146.25;100.00;52550.69;2096106;28;20041;-74
2023/10/21 03:19:50;;;;;;;125.00;35.97;;;;;;;-146.25;100.00;52530.41;2088275;28;29443;-74
2023/10/21 03:20:54;;;;;;;104.57;33.90;;;;;;;-146.25;100.00;52554.75;2088046;28;31708;-73
2023/10/21 03:21:56;;;;;;;114.75;31.17;;;;;;;-146.25;100.00;52550.69;2087188;28;33515;-74
2023/10/21 03:22:59;;;;;;;97.60;29.52;;;;;;;-146.25;100.00;52516.22;2088172;28;20111;-74
2023/10/21 03:24:03;;;;;;;141.68;34.53;;;;;;;-146.25;100.00;52536.50;2089010;28;20980;-72
2023/10/21 03:25:06;;;;;;;150.15;34.75;;;;;;;-146.25;100.00;52542.56;2088529;28;20765;-73
2023/10/21 03:26:08;;;;;;;113.57;30.80;;;;;;;-146.25;100.00;52560.81;2088154;28;33036;-73
2023/10/21 03:27:09;;;;;;;130.48;38.63;;;;;;;-146.25;100.00;52558.78;2087573;28;37742;-74
2023/10/21 03:28:11;;;;;;;163.27;50.00;;;;;;;-146.25;100.00;52530.41;2087497;28;29568;-74
2023/10/21 03:29:13;;;;;;;139.57;39.38;;;;;;;-146.25;100.00;52564.88;2087905;28;20887;-74
2023/10/21 03:30:16;;;;;;;138.35;35.58;;;;;;;-146.25;100.00;52526.34;2087635;28;29098;-74
2023/10/21 03:31:18;;;;;;;129.48;31.85;;;;;;;-146.25;100.00;52526.34;2088259;28;20037;-75
2023/10/21 03:32:19;;;;;;;102.80;30.00;;;;;;;-146.25;100.00;52542.56;2088571;28;25682;-73
2023/10/21 03:33:24;;;;;;;150.25;32.47;;;;;;;-146.25;100.00;52508.09;2088419;28;30039;-75
2023/10/21 03:34:28;;;;;;;139.32;30.02;;;;;;;-146.25;100.00;52530.41;2088667;28;20793;-74
2023/10/21 03:35:32;;;;;;;137.38;31.58;;;;;;;-146.25;100.00;52587.19;2087800;28;36420;-75
2023/10/21 03:36:34;;;;;;;103.00;32.25;;;;;;;-146.25;100.00;52558.78;2088575;28;20042;-73
2023/10/21 03:37:36;;;;;;;122.35;31.38;;;;;;;-146.25;100.00;52510.13;2087446;28;26585;-75
2023/10/21 03:38:38;;;;;;;119.10;31.70;;;;;;;-146.25;100.00;52573.00;2088170;28;20458;-73
2023/10/21 03:39:42;;;;;;;138.50;36.38;;;;;;;-146.25;100.00;52548.66;2088411;28;20037;-75
2023/10/21 03:40:54;;;;;;;159.35;40.95;;;;;;;-146.25;100.00;52530.41;2088704;28;20951;-73
2023/10/21 03:41:55;;;;;;;136.07;33.65;;;;;;;-146.25;100.00;52552.72;2096199;28;20139;-74
2023/10/21 03:42:57;;;;;;;137.40;36.00;;;;;;;-146.25;100.00;52540.53;2095477;28;20679;-73
2023/10/21 03:44:01;;;;;;;148.40;35.38;;;;;;;-146.25;100.00;52542.56;2088960;28;20037;-75
2023/10/21 03:45:05;;;;;;;125.45;35.53;;;;;;;-146.25;100.00;52573.00;2087555;28;20223;-73
2023/10/21 03:46:14;;;;;;;125.70;33.90;;;;;;;-146.25;100.00;52544.59;2087481;28;20046;-74
2023/10/21 03:47:16;;;;;;;134.30;31.42;;;;;;;-146.25;100.00;52534.47;2088513;28;20045;-74
2023/10/21 03:48:18;;;;;;;147.48;32.25;;;;;;;-146.25;100.00;52520.28;2095995;28;24404;-74
2023/10/21 03:49:21;;;;;;;149.55;32.97;;;;;;;-146.25;100.00;52536.50;2088361;28;20045;-74
2023/10/21 03:50:26;;;;;;;123.57;33.13;;;;;;;-146.25;100.00;52530.41;2088667;28;20131;-74
2023/10/21 03:51:28;;;;;;;113.50;29.35;;;;;;;-146.25;100.00;52532.44;2087539;28;30490;-74
2023/10/21 03:52:30;;;;;;;113.65;30.25;;;;;;;-146.25;100.00;52528.38;2087987;28;33327;-75
2023/10/21 03:53:33;;;;;;;169.18;39.90;;;;;;;-146.25;100.00;52534.47;2087538;28;31739;-77
2023/10/21 03:54:35;;;;;;;113.43;33.30;;;;;;;-146.25;100.00;52510.13;2088055;28;36010;-74
2023/10/21 03:55:39;;;;;;;126.25;34.35;;;;;;;-146.25;100.00;52556.75;2087613;28;28832;-74
2023/10/21 03:56:42;;;;;;;117.55;34.13;;;;;;;-146.25;100.00;52518.25;2088373;28;35398;-75
2023/10/21 03:57:44;;;;;;;141.93;39.53;;;;;;;-146.25;100.00;52550.69;2087929;28;34257;-75
2023/10/21 03:58:46;;;;;;;119.50;32.80;;;;;;;-146.25;100.00;52556.75;2088084;28;34589;-74
2023/10/21 03:59:52;;;;;;;132.20;34.10;;;;;;;-146.25;100.00;52583.13;2087504;28;37876;-75
2023/10/21 04:00:56;;;;;;;126.75;35.08;;;;;;;-146.25;100.00;52560.81;2088929;28;21010;-75
2023/10/21 04:01:58;;;;;;;107.25;30.83;;;;;;;-146.25;100.00;52568.94;2087894;28;36575;-74
2023/10/21 04:03:00;;;;;;;134.13;32.88;;;;;;;-146.25;100.00;52556.75;2088158;28;34428;-75
2023/10/21 04:04:02;;;;;;;120.38;32.40;;;;;;;-146.25;100.00;52542.56;2088158;28;20809;-75
2023/10/21 04:05:08;;;;;;;132.07;33.38;;;;;;;-146.25;100.00;52548.66;2088081;28;35306;-74
2023/10/21 04:06:11;;;;;;;106.75;32.00;;;;;;;-146.25;100.00;52540.53;2087804;28;35515;-75
2023/10/21 04:07:13;;;;;;;121.65;32.05;;;;;;;-146.25;100.00;52532.44;2088881;28;20042;-74
2023/10/21 04:08:15;;;;;;;113.90;31.30;;;;;;;-146.25;100.00;52562.84;2087664;28;34399;-74
2023/10/21 04:09:17;;;;;;;117.00;32.25;;;;;;;-146.25;100.00;52573.00;2087656;28;38270;-74
2023/10/21 04:10:19;;;;;;;119.25;30.33;;;;;;;-146.25;100.00;52516.22;2087961;28;34035;-75
2023/10/21 04:11:21;;;;;;;119.70;35.78;;;;;;;-146.25;100.00;52581.09;2087883;28;37616;-74
2023/10/21 04:12:22;;;;;;;127.85;35.08;;;;;;;-146.25;100.00;52520.28;2087510;28;33495;-73
2023/10/21 04:13:24;;;;;;;121.70;33.90;;;;;;;-146.25;100.00;52528.38;2088095;28;34932;-74
2023/10/21 04:14:26;;;;;;;104.82;30.90;;;;;;;-146.25;100.00;52554.75;2087364;28;38270;-74
2023/10/21 04:15:28;;;;;;;105.00;31.27;;;;;;;-146.25;100.00;52526.34;2088995;28;20037;-74
2023/10/21 04:16:33;;;;;;;117.95;33.25;;;;;;;-146.25;100.00;52546.63;2087349;28;33937;-74
2023/10/21 04:17:39;;;;;;;109.03;30.83;;;;;;;-146.25;100.00;52534.47;2087922;28;34663;-75
2023/10/21 04:18:41;;;;;;;121.70;32.97;;;;;;;-146.25;100.00;52558.78;2088076;28;34511;-76
2023/10/21 04:19:43;;;;;;;98.93;29.88;;;;;;;-146.25;100.00;52548.66;2087593;28;36727;-76
2023/10/21 04:20:45;;;;;;;116.50;31.48;;;;;;;-146.25;100.00;52532.44;2087579;28;35086;-75
2023/10/21 04:21:50;;;;;;;122.15;32.47;;;;;;;-146.25;100.00;52562.84;2088306;28;20037;-75
2023/10/21 04:22:54;;;;;;;132.02;38.25;;;;;;;-146.25;100.00;52532.44;2087137;28;37130;-77
2023/10/21 04:23:56;;;;;;;105.80;29.77;;;;;;;-146.25;100.00;52534.47;2088441;28;34225;-74
2023/10/21 04:25:01;;;;;;;121.95;31.73;;;;;;;-146.25;100.00;52568.94;2087824;28;33680;-74
2023/10/21 04:26:05;;;;;;;108.55;31.75;;;;;;;-146.25;100.00;52609.50;2087811;28;36726;-74
2023/10/21 04:27:07;;;;;;;130.90;32.50;;;;;;;-146.25;100.00;52550.69;2087991;28;20036;-73
2023/10/21 04:28:10;;;;;;;116.47;31.63;;;;;;;-146.25;100.00;52550.69;2088069;28;35569;-76
2023/10/21 04:29:15;;;;;;;122.32;30.83;;;;;;;-146.25;100.00;52534.47;2087839;28;32855;-77
2023/10/21 04:30:17;;;;;;;120.13;30.20;;;;;;;-146.25;100.00;52540.53;2088297;28;21050;-77
2023/10/21 04:31:19;;;;;;;115.78;30.15;;;;;;;-146.25;100.00;52522.28;2087420;28;38061;-74
2023/10/21 04:32:21;;;;;;;114.15;30.05;;;;;;;-146.25;100.00;52568.94;2087904;28;35845;-77
2023/10/21 04:33:23;;;;;;;111.13;30.95;;;;;;;-146.25;100.00;52506.06;2088012;28;20802;-73
2023/10/21 04:34:25;;;;;;;116.03;33.67;;;;;;;-146.25;100.00;52534.47;2087910;28;34643;-74
2023/10/21 04:35:26;;;;;;;115.93;30.73;;;;;;;-146.25;100.00;52577.03;2087073;28;38273;-74
2023/10/21 04:36:28;;;;;;;112.00;31.38;;;;;;;-146.25;100.00;52556.75;2088483;28;20119;-75
2023/10/21 04:37:33;;;;;;;118.30;35.88;;;;;;;-146.25;100.00;52566.91;2087296;28;20084;-74